< < Back
Terminal Aerodrome Forecast


Current Version              Previous Versions:   1  2  3  4  5  6  7  8  9  

Terminal Aerodrome Forecast

091
FTUS42 KJAX 251100 AAA
TAFGNV
TAF AMD
KGNV 251129Z 2511/2612 24006KT P6SM VCSH SCT020 BKN100 BKN250
     FM251600 23008KT P6SM VCTS SCT040CB BKN080 OVC200
     FM260100 24007KT P6SM SCT040 SCT080 BKN250=

Latest METAR

705
SAUS70 KWBC 251600 RRH
MTRGNV
METAR KGNV 251553Z 27009G18KT 10SM CLR 32/23 A3007 RMK AO2 LTG DSNT SE
SLP179 T03170233


USA.gov is the U.S. government's official web portal to all federal, state and local government web resources and services.